Detall de PIREP

Printer-friendly versionPDF version

[2014/01/06 17:12:00]
Flight IATA:CT2303
Pilot Number:044
Company ICAO:CAT
Aircraft Type:AT72/F
PAX:20
Departing Airport: LIBR
Destination Airport: LIEA
Alternate Airport:LIEO
Online: VATSIM
Route:ROBOT L995 LUXIL/N250F170 M742 SOR/N250F160 M603 PNZ/N250F170 M603 MOROB
Flight Level:F160
No Slew and time accel
No pause
Crash detect
Detect pilot in Cockpit between each 30 and 45 minutes
17:12 Zero fuel Weight: 39663 Lbs, Fuel Weight: 5533 Lbs
17:12 VATSIM:LIBR 061645Z 35004KT 9999 FEW015 12/12 Q1022 NOSIG
17:12 VATSIM:LIEA 061650Z 03002KT CAVOK 12/09 Q1021
17:13 VOICE CATALONIAN
17:15 Parking Brakes off
17:25 Take-off
17:25 Take off Weight: 45080 Lbs
17:25 Wind: 348º @ 004 Knots Heading: 316º
17:25 POS N40º 39´ 51´´ E017º 56´ 22´´
17:25 Gear Up: 133 Knots
17:25 Flaps:1 at 133 Knots
17:25 Flaps:0 at 149 Knots
17:39 TOC
17:39 Fuel Weight: 4942 Lb
17:40 Wind:006º@009 Knots Heading: 272º Ground Speed: 255 Knots Altitude 16148 ft
17:55 Wind:084º@006 Knots Heading: 261º Ground Speed: 293 Knots Altitude 17191 ft
18:10 Wind:306º@004 Knots Heading: 290º Ground Speed: 282 Knots Altitude 16204 ft
18:25 Wind:017º@004 Knots Heading: 266º Ground Speed: 287 Knots Altitude 17217 ft
18:40 Wind:073º@009 Knots Heading: 269º Ground Speed: 294 Knots Altitude 17237 ft
18:44 TOD
18:44 Fuel Weight: 2864 Lb
18:55 Wind:090º@004 Knots Heading: 263º Ground Speed: 232 Knots Altitude 6272 ft
19:05 Flaps:1 at 179 Knots
19:06 Gear Down: 137 Knots
19:08 Flaps:2 at 134 Knots
19:10 Wind:084º@000 Knots Heading: 203º Ground Speed: 120 Knots Altitude 1561 ft
19:12 TouchDown:Rate -116 ft/min Speed: 103 Knots
19:12 VATSIM:LIEA 061850Z 08003KT CAVOK 08/07 Q1022
19:12 Land
19:12 Wind:084º@000 Knots
19:12 Heading: 197º
19:12 Flight Duration: 01:47
19:12 Landing Weight: 42123 Lbs
19:12 POS N40º 37´ 49´´ E008º 17´ 23´´
19:15 Parking brakes on
19:15 Block to Block Duration: 02:00
19:15 Final Fuel: 2440 Lbls
19:15 Spent Fuel: 3093 Lbls
19:15 Flight Length: 459 NM
19:15 TOD Land Length: 96 NM

Exportar CSV

Powered by Drupal - Modified by Danger4k